Terminal Aerodrome Forecast
Issued by NWS Wilmington, OH

Current Version | Previous Version | Text Only | Print | Product List | Glossary Off
Versions: 1 2 3 4 5 6 7 8 9 10 11 12 13 14 15 16 17

000
FTUS41 KILN 211700
TAFDAY
TAF
KDAY 211730Z 2118/2218 15004KT P6SM SKC
     FM212200 15005KT P6SM SCT250
     FM220600 17008KT P6SM OVC050
      TEMPO 2209/2213 -FZRA OVC035
     FM221300 19013G22KT P6SM BKN060=

USA.gov is the U.S. government's official web portal to all federal, state and local government web resources and services.